sensor_id;sensor_type;location;lat;lon;timestamp;P1;durP1;ratioP1;P2;durP2;ratioP2
67100;SDS011;54019;61.746;16.106;2022-10-16T00:02:00;0.45;;;0.45;;
67100;SDS011;54019;61.746;16.106;2022-10-16T00:04:27;1.00;;;0.57;;
67100;SDS011;54019;61.746;16.106;2022-10-16T00:06:53;0.45;;;0.40;;
67100;SDS011;54019;61.746;16.106;2022-10-16T00:09:19;0.68;;;0.50;;
67100;SDS011;54019;61.746;16.106;2022-10-16T00:11:45;1.30;;;0.50;;
67100;SDS011;54019;61.746;16.106;2022-10-16T00:14:11;0.30;;;0.30;;
67100;SDS011;54019;61.746;16.106;2022-10-16T00:16:39;0.45;;;0.40;;
67100;SDS011;54019;61.746;16.106;2022-10-16T00:19:05;0.73;;;0.50;;
67100;SDS011;54019;61.746;16.106;2022-10-16T00:21:33;0.60;;;0.40;;
67100;SDS011;54019;61.746;16.106;2022-10-16T00:24:00;0.38;;;0.38;;
67100;SDS011;54019;61.746;16.106;2022-10-16T00:26:27;0.40;;;0.40;;
67100;SDS011;54019;61.746;16.106;2022-10-16T00:28:54;0.55;;;0.30;;
67100;SDS011;54019;61.746;16.106;2022-10-16T00:31:20;0.38;;;0.30;;
67100;SDS011;54019;61.746;16.106;2022-10-16T00:33:47;0.43;;;0.30;;
67100;SDS011;54019;61.746;16.106;2022-10-16T00:36:14;0.82;;;0.40;;
67100;SDS011;54019;61.746;16.106;2022-10-16T00:38:44;0.30;;;0.30;;
67100;SDS011;54019;61.746;16.106;2022-10-16T00:41:10;1.77;;;0.30;;
67100;SDS011;54019;61.746;16.106;2022-10-16T00:43:39;1.45;;;0.30;;
67100;SDS011;54019;61.746;16.106;2022-10-16T00:46:10;0.38;;;0.28;;
67100;SDS011;54019;61.746;16.106;2022-10-16T00:48:40;0.55;;;0.30;;
67100;SDS011;54019;61.746;16.106;2022-10-16T00:51:07;1.15;;;0.30;;
67100;SDS011;54019;61.746;16.106;2022-10-16T00:53:33;0.47;;;0.38;;
67100;SDS011;54019;61.746;16.106;2022-10-16T00:56:02;0.20;;;0.20;;
67100;SDS011;54019;61.746;16.106;2022-10-16T00:58:28;0.50;;;0.30;;
67100;SDS011;54019;61.746;16.106;2022-10-16T01:00:54;0.45;;;0.30;;
67100;SDS011;54019;61.746;16.106;2022-10-16T01:03:24;0.88;;;0.32;;
67100;SDS011;54019;61.746;16.106;2022-10-16T01:05:54;0.32;;;0.22;;
67100;SDS011;54019;61.746;16.106;2022-10-16T01:08:27;0.88;;;0.40;;
67100;SDS011;54019;61.746;16.106;2022-10-16T01:10:59;1.35;;;0.22;;
67100;SDS011;54019;61.746;16.106;2022-10-16T01:13:35;0.95;;;0.30;;
67100;SDS011;54019;61.746;16.106;2022-10-16T01:16:07;0.20;;;0.20;;
67100;SDS011;54019;61.746;16.106;2022-10-16T01:18:39;0.35;;;0.20;;
67100;SDS011;54019;61.746;16.106;2022-10-16T01:21:10;0.20;;;0.20;;
67100;SDS011;54019;61.746;16.106;2022-10-16T01:23:43;0.22;;;0.20;;
67100;SDS011;54019;61.746;16.106;2022-10-16T01:26:31;0.13;;;0.10;;
67100;SDS011;54019;61.746;16.106;2022-10-16T01:29:07;0.20;;;0.13;;
67100;SDS011;54019;61.746;16.106;2022-10-16T01:31:40;0.17;;;0.17;;
67100;SDS011;54019;61.746;16.106;2022-10-16T01:34:10;0.20;;;0.20;;
67100;SDS011;54019;61.746;16.106;2022-10-16T01:36:42;0.77;;;0.20;;
67100;SDS011;54019;61.746;16.106;2022-10-16T01:39:12;0.13;;;0.10;;
67100;SDS011;54019;61.746;16.106;2022-10-16T01:41:40;1.73;;;0.20;;
67100;SDS011;54019;61.746;16.106;2022-10-16T01:44:11;0.20;;;0.20;;
67100;SDS011;54019;61.746;16.106;2022-10-16T01:46:43;0.57;;;0.20;;
67100;SDS011;54019;61.746;16.106;2022-10-16T01:49:12;0.45;;;0.20;;
67100;SDS011;54019;61.746;16.106;2022-10-16T01:51:39;0.15;;;0.15;;
67100;SDS011;54019;61.746;16.106;2022-10-16T01:54:07;2.38;;;0.25;;
67100;SDS011;54019;61.746;16.106;2022-10-16T01:56:34;0.20;;;0.10;;
67100;SDS011;54019;61.746;16.106;2022-10-16T01:59:04;0.55;;;0.17;;
67100;SDS011;54019;61.746;16.106;2022-10-16T02:01:36;0.20;;;0.20;;
67100;SDS011;54019;61.746;16.106;2022-10-16T02:04:07;1.30;;;0.20;;
67100;SDS011;54019;61.746;16.106;2022-10-16T02:06:36;0.13;;;0.10;;
67100;SDS011;54019;61.746;16.106;2022-10-16T02:09:02;0.17;;;0.17;;
67100;SDS011;54019;61.746;16.106;2022-10-16T02:11:28;0.10;;;0.10;;
67100;SDS011;54019;61.746;16.106;2022-10-16T02:13:55;0.30;;;0.20;;
67100;SDS011;54019;61.746;16.106;2022-10-16T02:16:32;0.10;;;0.10;;
67100;SDS011;54019;61.746;16.106;2022-10-16T02:19:01;0.43;;;0.10;;
67100;SDS011;54019;61.746;16.106;2022-10-16T02:21:28;0.10;;;0.10;;
67100;SDS011;54019;61.746;16.106;2022-10-16T02:24:00;0.20;;;0.15;;
67100;SDS011;54019;61.746;16.106;2022-10-16T02:26:30;0.95;;;0.15;;
67100;SDS011;54019;61.746;16.106;2022-10-16T02:29:02;0.20;;;0.20;;
67100;SDS011;54019;61.746;16.106;2022-10-16T02:31:34;0.20;;;0.20;;
67100;SDS011;54019;61.746;16.106;2022-10-16T02:34:06;0.20;;;0.10;;
67100;SDS011;54019;61.746;16.106;2022-10-16T02:36:33;0.20;;;0.10;;
67100;SDS011;54019;61.746;16.106;2022-10-16T02:39:01;0.10;;;0.10;;
67100;SDS011;54019;61.746;16.106;2022-10-16T02:41:28;0.10;;;0.10;;
67100;SDS011;54019;61.746;16.106;2022-10-16T02:43:53;0.15;;;0.10;;
67100;SDS011;54019;61.746;16.106;2022-10-16T02:46:19;1.20;;;0.10;;
67100;SDS011;54019;61.746;16.106;2022-10-16T02:48:46;0.52;;;0.20;;
67100;SDS011;54019;61.746;16.106;2022-10-16T02:51:13;0.10;;;0.10;;
67100;SDS011;54019;61.746;16.106;2022-10-16T02:53:39;0.20;;;0.15;;
67100;SDS011;54019;61.746;16.106;2022-10-16T02:56:05;0.10;;;0.10;;
67100;SDS011;54019;61.746;16.106;2022-10-16T02:58:31;0.43;;;0.30;;
67100;SDS011;54019;61.746;16.106;2022-10-16T03:00:57;1.70;;;0.43;;
67100;SDS011;54019;61.746;16.106;2022-10-16T03:03:22;1.50;;;0.30;;
67100;SDS011;54019;61.746;16.106;2022-10-16T03:05:48;0.75;;;0.20;;
67100;SDS011;54019;61.746;16.106;2022-10-16T03:08:15;0.93;;;0.40;;
67100;SDS011;54019;61.746;16.106;2022-10-16T03:10:41;0.35;;;0.20;;
67100;SDS011;54019;61.746;16.106;2022-10-16T03:13:07;0.25;;;0.20;;
67100;SDS011;54019;61.746;16.106;2022-10-16T03:15:36;0.10;;;0.10;;
67100;SDS011;54019;61.746;16.106;2022-10-16T03:18:01;0.40;;;0.30;;
67100;SDS011;54019;61.746;16.106;2022-10-16T03:20:27;0.70;;;0.20;;
67100;SDS011;54019;61.746;16.106;2022-10-16T03:22:53;0.40;;;0.22;;
67100;SDS011;54019;61.746;16.106;2022-10-16T03:25:20;0.20;;;0.20;;
67100;SDS011;54019;61.746;16.106;2022-10-16T03:27:46;0.30;;;0.20;;
67100;SDS011;54019;61.746;16.106;2022-10-16T03:30:12;0.55;;;0.35;;
67100;SDS011;54019;61.746;16.106;2022-10-16T03:32:38;0.20;;;0.20;;
67100;SDS011;54019;61.746;16.106;2022-10-16T03:35:04;0.40;;;0.22;;
67100;SDS011;54019;61.746;16.106;2022-10-16T03:37:30;0.10;;;0.10;;
67100;SDS011;54019;61.746;16.106;2022-10-16T03:39:56;1.45;;;0.20;;
67100;SDS011;54019;61.746;16.106;2022-10-16T03:42:23;0.20;;;0.20;;
67100;SDS011;54019;61.746;16.106;2022-10-16T03:44:49;0.30;;;0.20;;
67100;SDS011;54019;61.746;16.106;2022-10-16T03:47:15;0.25;;;0.20;;
67100;SDS011;54019;61.746;16.106;2022-10-16T03:49:41;0.10;;;0.10;;
67100;SDS011;54019;61.746;16.106;2022-10-16T03:52:07;0.20;;;0.20;;
67100;SDS011;54019;61.746;16.106;2022-10-16T03:54:32;0.20;;;0.20;;
67100;SDS011;54019;61.746;16.106;2022-10-16T03:56:58;0.60;;;0.20;;
67100;SDS011;54019;61.746;16.106;2022-10-16T03:59:25;0.30;;;0.17;;
67100;SDS011;54019;61.746;16.106;2022-10-16T04:01:51;1.45;;;0.10;;
67100;SDS011;54019;61.746;16.106;2022-10-16T04:04:17;0.38;;;0.10;;
67100;SDS011;54019;61.746;16.106;2022-10-16T04:06:43;0.22;;;0.10;;
67100;SDS011;54019;61.746;16.106;2022-10-16T04:09:09;0.20;;;0.10;;
67100;SDS011;54019;61.746;16.106;2022-10-16T04:11:35;0.10;;;0.10;;
67100;SDS011;54019;61.746;16.106;2022-10-16T04:14:00;0.30;;;0.13;;
67100;SDS011;54019;61.746;16.106;2022-10-16T04:16:28;0.40;;;0.30;;
67100;SDS011;54019;61.746;16.106;2022-10-16T04:18:53;0.15;;;0.10;;
67100;SDS011;54019;61.746;16.106;2022-10-16T04:21:19;0.30;;;0.13;;
67100;SDS011;54019;61.746;16.106;2022-10-16T04:23:45;0.15;;;0.15;;
67100;SDS011;54019;61.746;16.106;2022-10-16T04:26:11;0.50;;;0.20;;
67100;SDS011;54019;61.746;16.106;2022-10-16T04:28:37;0.70;;;0.10;;
67100;SDS011;54019;61.746;16.106;2022-10-16T04:31:03;0.10;;;0.10;;
67100;SDS011;54019;61.746;16.106;2022-10-16T04:33:30;0.32;;;0.17;;
67100;SDS011;54019;61.746;16.106;2022-10-16T04:35:57;0.45;;;0.20;;
67100;SDS011;54019;61.746;16.106;2022-10-16T04:38:22;0.20;;;0.20;;
67100;SDS011;54019;61.746;16.106;2022-10-16T04:40:48;0.65;;;0.15;;
67100;SDS011;54019;61.746;16.106;2022-10-16T04:43:14;0.40;;;0.10;;
67100;SDS011;54019;61.746;16.106;2022-10-16T04:45:40;0.00;;;0.00;;
67100;SDS011;54019;61.746;16.106;2022-10-16T04:48:06;0.10;;;0.10;;
67100;SDS011;54019;61.746;16.106;2022-10-16T04:50:33;0.10;;;0.10;;
67100;SDS011;54019;61.746;16.106;2022-10-16T04:52:59;0.10;;;0.10;;
67100;SDS011;54019;61.746;16.106;2022-10-16T04:55:24;0.20;;;0.20;;
67100;SDS011;54019;61.746;16.106;2022-10-16T04:57:50;0.15;;;0.15;;
67100;SDS011;54019;61.746;16.106;2022-10-16T05:00:16;0.20;;;0.20;;
67100;SDS011;54019;61.746;16.106;2022-10-16T05:02:42;0.10;;;0.10;;
67100;SDS011;54019;61.746;16.106;2022-10-16T05:05:08;0.20;;;0.10;;
67100;SDS011;54019;61.746;16.106;2022-10-16T05:07:35;0.22;;;0.20;;
67100;SDS011;54019;61.746;16.106;2022-10-16T05:10:01;0.10;;;0.10;;
67100;SDS011;54019;61.746;16.106;2022-10-16T05:12:28;0.10;;;0.10;;
67100;SDS011;54019;61.746;16.106;2022-10-16T05:14:54;0.20;;;0.20;;
67100;SDS011;54019;61.746;16.106;2022-10-16T05:17:19;0.38;;;0.20;;
67100;SDS011;54019;61.746;16.106;2022-10-16T05:19:45;0.10;;;0.10;;
67100;SDS011;54019;61.746;16.106;2022-10-16T05:22:11;0.10;;;0.10;;
67100;SDS011;54019;61.746;16.106;2022-10-16T05:24:38;0.20;;;0.17;;
67100;SDS011;54019;61.746;16.106;2022-10-16T05:27:04;0.60;;;0.20;;
67100;SDS011;54019;61.746;16.106;2022-10-16T05:29:30;0.30;;;0.10;;
67100;SDS011;54019;61.746;16.106;2022-10-16T05:31:55;0.20;;;0.20;;
67100;SDS011;54019;61.746;16.106;2022-10-16T05:34:21;0.40;;;0.13;;
67100;SDS011;54019;61.746;16.106;2022-10-16T05:36:47;0.15;;;0.15;;
67100;SDS011;54019;61.746;16.106;2022-10-16T05:39:13;0.10;;;0.10;;
67100;SDS011;54019;61.746;16.106;2022-10-16T05:41:41;0.10;;;0.10;;
67100;SDS011;54019;61.746;16.106;2022-10-16T05:44:07;0.20;;;0.20;;
67100;SDS011;54019;61.746;16.106;2022-10-16T05:46:33;0.13;;;0.13;;
67100;SDS011;54019;61.746;16.106;2022-10-16T05:48:59;0.10;;;0.10;;
67100;SDS011;54019;61.746;16.106;2022-10-16T05:51:25;0.20;;;0.20;;
67100;SDS011;54019;61.746;16.106;2022-10-16T05:53:51;0.13;;;0.13;;
67100;SDS011;54019;61.746;16.106;2022-10-16T05:56:17;0.13;;;0.13;;
67100;SDS011;54019;61.746;16.106;2022-10-16T05:58:45;0.20;;;0.20;;
67100;SDS011;54019;61.746;16.106;2022-10-16T06:01:12;0.50;;;0.20;;
67100;SDS011;54019;61.746;16.106;2022-10-16T06:03:38;0.10;;;0.10;;
67100;SDS011;54019;61.746;16.106;2022-10-16T06:06:07;0.47;;;0.20;;
67100;SDS011;54019;61.746;16.106;2022-10-16T06:08:34;0.10;;;0.10;;
67100;SDS011;54019;61.746;16.106;2022-10-16T06:11:00;0.20;;;0.20;;
67100;SDS011;54019;61.746;16.106;2022-10-16T06:13:27;0.38;;;0.10;;
67100;SDS011;54019;61.746;16.106;2022-10-16T06:15:56;0.17;;;0.17;;
67100;SDS011;54019;61.746;16.106;2022-10-16T06:18:23;0.30;;;0.17;;
67100;SDS011;54019;61.746;16.106;2022-10-16T06:20:48;0.20;;;0.20;;
67100;SDS011;54019;61.746;16.106;2022-10-16T06:23:14;0.43;;;0.10;;
67100;SDS011;54019;61.746;16.106;2022-10-16T06:25:40;0.10;;;0.10;;
67100;SDS011;54019;61.746;16.106;2022-10-16T06:28:06;0.20;;;0.20;;
67100;SDS011;54019;61.746;16.106;2022-10-16T06:30:32;1.55;;;0.20;;
67100;SDS011;54019;61.746;16.106;2022-10-16T06:32:59;0.50;;;0.20;;
67100;SDS011;54019;61.746;16.106;2022-10-16T06:35:25;0.10;;;0.10;;
67100;SDS011;54019;61.746;16.106;2022-10-16T06:37:52;0.15;;;0.15;;
67100;SDS011;54019;61.746;16.106;2022-10-16T06:40:18;2.67;;;0.20;;
67100;SDS011;54019;61.746;16.106;2022-10-16T06:42:44;0.90;;;0.30;;
67100;SDS011;54019;61.746;16.106;2022-10-16T06:45:09;0.10;;;0.10;;
67100;SDS011;54019;61.746;16.106;2022-10-16T06:47:35;0.63;;;0.20;;
67100;SDS011;54019;61.746;16.106;2022-10-16T06:50:03;0.10;;;0.10;;
67100;SDS011;54019;61.746;16.106;2022-10-16T06:52:30;0.10;;;0.10;;
67100;SDS011;54019;61.746;16.106;2022-10-16T06:54:55;0.30;;;0.20;;
67100;SDS011;54019;61.746;16.106;2022-10-16T06:57:21;0.10;;;0.10;;
67100;SDS011;54019;61.746;16.106;2022-10-16T06:59:47;0.30;;;0.20;;
67100;SDS011;54019;61.746;16.106;2022-10-16T07:02:13;0.25;;;0.15;;
67100;SDS011;54019;61.746;16.106;2022-10-16T07:04:39;0.10;;;0.10;;
67100;SDS011;54019;61.746;16.106;2022-10-16T07:07:06;0.70;;;0.20;;
67100;SDS011;54019;61.746;16.106;2022-10-16T07:09:32;0.43;;;0.20;;
67100;SDS011;54019;61.746;16.106;2022-10-16T07:11:57;1.13;;;0.10;;
67100;SDS011;54019;61.746;16.106;2022-10-16T07:14:23;0.30;;;0.20;;
67100;SDS011;54019;61.746;16.106;2022-10-16T07:16:49;0.22;;;0.17;;
67100;SDS011;54019;61.746;16.106;2022-10-16T07:19:15;0.25;;;0.10;;
67100;SDS011;54019;61.746;16.106;2022-10-16T07:21:41;0.90;;;0.20;;
67100;SDS011;54019;61.746;16.106;2022-10-16T07:24:10;0.25;;;0.20;;
67100;SDS011;54019;61.746;16.106;2022-10-16T07:26:37;0.40;;;0.20;;
67100;SDS011;54019;61.746;16.106;2022-10-16T07:29:03;0.30;;;0.10;;
67100;SDS011;54019;61.746;16.106;2022-10-16T07:31:29;0.43;;;0.13;;
67100;SDS011;54019;61.746;16.106;2022-10-16T07:33:55;1.77;;;0.30;;
67100;SDS011;54019;61.746;16.106;2022-10-16T07:36:23;1.67;;;0.38;;
67100;SDS011;54019;61.746;16.106;2022-10-16T07:38:49;0.85;;;0.30;;
67100;SDS011;54019;61.746;16.106;2022-10-16T07:41:18;0.17;;;0.17;;
67100;SDS011;54019;61.746;16.106;2022-10-16T07:43:45;2.75;;;0.40;;
67100;SDS011;54019;61.746;16.106;2022-10-16T07:46:11;1.70;;;0.30;;
67100;SDS011;54019;61.746;16.106;2022-10-16T07:48:37;2.60;;;0.45;;
67100;SDS011;54019;61.746;16.106;2022-10-16T07:51:03;1.42;;;0.22;;
67100;SDS011;54019;61.746;16.106;2022-10-16T07:53:30;0.52;;;0.20;;
67100;SDS011;54019;61.746;16.106;2022-10-16T07:55:57;2.05;;;0.30;;
67100;SDS011;54019;61.746;16.106;2022-10-16T07:58:25;2.40;;;0.32;;
67100;SDS011;54019;61.746;16.106;2022-10-16T08:00:51;0.80;;;0.30;;
67100;SDS011;54019;61.746;16.106;2022-10-16T08:03:17;0.40;;;0.20;;
67100;SDS011;54019;61.746;16.106;2022-10-16T08:05:42;2.17;;;0.20;;
67100;SDS011;54019;61.746;16.106;2022-10-16T08:08:11;3.10;;;0.30;;
67100;SDS011;54019;61.746;16.106;2022-10-16T08:10:38;0.52;;;0.38;;
67100;SDS011;54019;61.746;16.106;2022-10-16T08:13:03;3.17;;;0.20;;
67100;SDS011;54019;61.746;16.106;2022-10-16T08:15:31;0.20;;;0.20;;
67100;SDS011;54019;61.746;16.106;2022-10-16T08:17:57;2.63;;;0.32;;
67100;SDS011;54019;61.746;16.106;2022-10-16T08:20:24;0.80;;;0.28;;
67100;SDS011;54019;61.746;16.106;2022-10-16T08:22:50;1.00;;;0.40;;
67100;SDS011;54019;61.746;16.106;2022-10-16T08:25:16;1.38;;;0.40;;
67100;SDS011;54019;61.746;16.106;2022-10-16T08:27:42;4.47;;;0.47;;
67100;SDS011;54019;61.746;16.106;2022-10-16T08:30:08;2.50;;;0.60;;
67100;SDS011;54019;61.746;16.106;2022-10-16T08:32:36;3.78;;;0.65;;
67100;SDS011;54019;61.746;16.106;2022-10-16T08:35:02;3.03;;;0.45;;
67100;SDS011;54019;61.746;16.106;2022-10-16T08:37:29;6.50;;;0.73;;
67100;SDS011;54019;61.746;16.106;2022-10-16T08:39:55;5.63;;;0.50;;
67100;SDS011;54019;61.746;16.106;2022-10-16T08:42:29;2.50;;;0.77;;
67100;SDS011;54019;61.746;16.106;2022-10-16T08:48:10;4.15;;;0.47;;
67100;SDS011;54019;61.746;16.106;2022-10-16T08:50:42;1.55;;;0.40;;
67100;SDS011;54019;61.746;16.106;2022-10-16T08:53:10;2.42;;;0.40;;
67100;SDS011;54019;61.746;16.106;2022-10-16T08:55:43;4.15;;;0.45;;
67100;SDS011;54019;61.746;16.106;2022-10-16T08:58:14;3.20;;;0.40;;
67100;SDS011;54019;61.746;16.106;2022-10-16T09:00:41;6.45;;;0.57;;
67100;SDS011;54019;61.746;16.106;2022-10-16T09:03:13;1.10;;;0.40;;
67100;SDS011;54019;61.746;16.106;2022-10-16T09:05:49;5.35;;;0.40;;
67100;SDS011;54019;61.746;16.106;2022-10-16T09:08:52;0.45;;;0.20;;
67100;SDS011;54019;61.746;16.106;2022-10-16T09:11:41;6.55;;;0.32;;
67100;SDS011;54019;61.746;16.106;2022-10-16T09:14:17;2.67;;;0.45;;
67100;SDS011;54019;61.746;16.106;2022-10-16T09:16:55;4.00;;;0.52;;
67100;SDS011;54019;61.746;16.106;2022-10-16T09:19:26;4.70;;;0.60;;
67100;SDS011;54019;61.746;16.106;2022-10-16T09:21:56;2.78;;;0.80;;
67100;SDS011;54019;61.746;16.106;2022-10-16T09:24:25;6.15;;;1.80;;
67100;SDS011;54019;61.746;16.106;2022-10-16T09:26:51;2.90;;;1.20;;
67100;SDS011;54019;61.746;16.106;2022-10-16T09:29:18;4.10;;;0.68;;
67100;SDS011;54019;61.746;16.106;2022-10-16T09:31:45;5.13;;;0.90;;
67100;SDS011;54019;61.746;16.106;2022-10-16T09:34:13;5.82;;;0.70;;
67100;SDS011;54019;61.746;16.106;2022-10-16T09:36:55;2.45;;;0.52;;
67100;SDS011;54019;61.746;16.106;2022-10-16T09:39:22;4.20;;;0.50;;
67100;SDS011;54019;61.746;16.106;2022-10-16T09:41:48;2.15;;;0.47;;
67100;SDS011;54019;61.746;16.106;2022-10-16T09:44:17;2.72;;;0.40;;
67100;SDS011;54019;61.746;16.106;2022-10-16T09:46:46;2.53;;;0.50;;
67100;SDS011;54019;61.746;16.106;2022-10-16T09:49:19;4.05;;;0.50;;
67100;SDS011;54019;61.746;16.106;2022-10-16T09:51:47;2.30;;;0.57;;
67100;SDS011;54019;61.746;16.106;2022-10-16T09:54:15;4.78;;;0.35;;
67100;SDS011;54019;61.746;16.106;2022-10-16T09:56:42;1.77;;;0.38;;
67100;SDS011;54019;61.746;16.106;2022-10-16T09:59:08;0.75;;;0.20;;
67100;SDS011;54019;61.746;16.106;2022-10-16T10:01:37;3.90;;;0.50;;
67100;SDS011;54019;61.746;16.106;2022-10-16T10:04:05;2.67;;;0.60;;
67100;SDS011;54019;61.746;16.106;2022-10-16T10:06:33;0.73;;;0.30;;
67100;SDS011;54019;61.746;16.106;2022-10-16T10:09:02;3.80;;;0.60;;
67100;SDS011;54019;61.746;16.106;2022-10-16T10:11:42;2.25;;;0.30;;
67100;SDS011;54019;61.746;16.106;2022-10-16T10:14:18;0.60;;;0.30;;
67100;SDS011;54019;61.746;16.106;2022-10-16T10:16:51;2.50;;;0.40;;
67100;SDS011;54019;61.746;16.106;2022-10-16T10:19:19;7.68;;;0.68;;
67100;SDS011;54019;61.746;16.106;2022-10-16T10:21:46;1.75;;;0.35;;
67100;SDS011;54019;61.746;16.106;2022-10-16T10:24:13;3.63;;;0.30;;
67100;SDS011;54019;61.746;16.106;2022-10-16T10:26:44;3.47;;;0.40;;
67100;SDS011;54019;61.746;16.106;2022-10-16T10:29:20;4.15;;;0.32;;
67100;SDS011;54019;61.746;16.106;2022-10-16T10:32:03;2.50;;;0.20;;
67100;SDS011;54019;61.746;16.106;2022-10-16T10:34:41;0.93;;;0.22;;
67100;SDS011;54019;61.746;16.106;2022-10-16T10:37:23;2.90;;;0.30;;
67100;SDS011;54019;61.746;16.106;2022-10-16T10:39:57;4.85;;;0.40;;
67100;SDS011;54019;61.746;16.106;2022-10-16T10:47:56;3.72;;;0.30;;
67100;SDS011;54019;61.746;16.106;2022-10-16T10:50:33;1.08;;;0.22;;
67100;SDS011;54019;61.746;16.106;2022-10-16T10:53:09;1.85;;;0.20;;
67100;SDS011;54019;61.746;16.106;2022-10-16T10:55:44;4.15;;;0.50;;
67100;SDS011;54019;61.746;16.106;2022-10-16T11:01:25;3.15;;;0.30;;
67100;SDS011;54019;61.746;16.106;2022-10-16T11:04:11;4.22;;;0.30;;
67100;SDS011;54019;61.746;16.106;2022-10-16T11:06:54;4.53;;;0.32;;
67100;SDS011;54019;61.746;16.106;2022-10-16T11:09:23;2.05;;;0.45;;
67100;SDS011;54019;61.746;16.106;2022-10-16T11:11:54;0.60;;;0.20;;
67100;SDS011;54019;61.746;16.106;2022-10-16T11:14:28;0.27;;;0.27;;
67100;SDS011;54019;61.746;16.106;2022-10-16T11:16:58;1.55;;;0.30;;
67100;SDS011;54019;61.746;16.106;2022-10-16T11:19:31;1.02;;;0.17;;
67100;SDS011;54019;61.746;16.106;2022-10-16T11:22:03;3.63;;;0.57;;
67100;SDS011;54019;61.746;16.106;2022-10-16T11:24:35;1.48;;;0.30;;
67100;SDS011;54019;61.746;16.106;2022-10-16T11:27:11;0.50;;;0.22;;
67100;SDS011;54019;61.746;16.106;2022-10-16T11:29:45;3.05;;;0.30;;
67100;SDS011;54019;61.746;16.106;2022-10-16T11:34:45;0.85;;;0.30;;
67100;SDS011;54019;61.746;16.106;2022-10-16T11:37:16;2.40;;;0.30;;
67100;SDS011;54019;61.746;16.106;2022-10-16T11:39:45;1.95;;;0.40;;
67100;SDS011;54019;61.746;16.106;2022-10-16T11:42:13;3.08;;;0.25;;
67100;SDS011;54019;61.746;16.106;2022-10-16T11:44:48;4.60;;;0.52;;
67100;SDS011;54019;61.746;16.106;2022-10-16T11:47:23;2.10;;;0.30;;
67100;SDS011;54019;61.746;16.106;2022-10-16T11:49:59;2.25;;;0.40;;
67100;SDS011;54019;61.746;16.106;2022-10-16T11:52:28;1.80;;;0.32;;
67100;SDS011;54019;61.746;16.106;2022-10-16T11:54:59;6.63;;;0.40;;
67100;SDS011;54019;61.746;16.106;2022-10-16T11:57:31;2.45;;;0.30;;
67100;SDS011;54019;61.746;16.106;2022-10-16T12:00:01;1.55;;;0.50;;
67100;SDS011;54019;61.746;16.106;2022-10-16T12:02:44;1.20;;;0.20;;
67100;SDS011;54019;61.746;16.106;2022-10-16T12:05:24;4.85;;;0.40;;
67100;SDS011;54019;61.746;16.106;2022-10-16T12:07:58;3.55;;;0.35;;
67100;SDS011;54019;61.746;16.106;2022-10-16T12:10:31;5.70;;;0.50;;
67100;SDS011;54019;61.746;16.106;2022-10-16T12:12:57;10.60;;;0.60;;
67100;SDS011;54019;61.746;16.106;2022-10-16T12:15:25;3.17;;;0.50;;
67100;SDS011;54019;61.746;16.106;2022-10-16T12:17:52;3.55;;;0.47;;
67100;SDS011;54019;61.746;16.106;2022-10-16T12:20:23;2.60;;;0.30;;
67100;SDS011;54019;61.746;16.106;2022-10-16T12:22:52;1.25;;;0.30;;
67100;SDS011;54019;61.746;16.106;2022-10-16T12:25:20;1.77;;;0.20;;
67100;SDS011;54019;61.746;16.106;2022-10-16T12:27:53;2.10;;;0.50;;
67100;SDS011;54019;61.746;16.106;2022-10-16T12:30:26;3.15;;;0.30;;
67100;SDS011;54019;61.746;16.106;2022-10-16T12:32:53;3.72;;;0.35;;
67100;SDS011;54019;61.746;16.106;2022-10-16T12:35:21;1.15;;;0.40;;
67100;SDS011;54019;61.746;16.106;2022-10-16T12:37:50;3.03;;;0.35;;
67100;SDS011;54019;61.746;16.106;2022-10-16T12:40:24;4.95;;;0.30;;
67100;SDS011;54019;61.746;16.106;2022-10-16T12:42:53;0.93;;;0.10;;
67100;SDS011;54019;61.746;16.106;2022-10-16T12:45:25;2.42;;;0.60;;
67100;SDS011;54019;61.746;16.106;2022-10-16T12:47:53;1.30;;;0.38;;
67100;SDS011;54019;61.746;16.106;2022-10-16T12:50:25;2.45;;;0.30;;
67100;SDS011;54019;61.746;16.106;2022-10-16T12:52:52;1.33;;;0.30;;
67100;SDS011;54019;61.746;16.106;2022-10-16T12:55:19;2.05;;;0.40;;
67100;SDS011;54019;61.746;16.106;2022-10-16T12:57:50;3.60;;;0.50;;
67100;SDS011;54019;61.746;16.106;2022-10-16T13:00:36;1.25;;;0.20;;
67100;SDS011;54019;61.746;16.106;2022-10-16T13:03:17;5.95;;;0.50;;
67100;SDS011;54019;61.746;16.106;2022-10-16T13:06:13;1.23;;;0.22;;
67100;SDS011;54019;61.746;16.106;2022-10-16T13:08:52;6.22;;;0.47;;
67100;SDS011;54019;61.746;16.106;2022-10-16T13:11:35;3.22;;;0.50;;
67100;SDS011;54019;61.746;16.106;2022-10-16T13:17:08;0.95;;;0.25;;
67100;SDS011;54019;61.746;16.106;2022-10-16T13:19:41;1.35;;;0.30;;
67100;SDS011;54019;61.746;16.106;2022-10-16T13:22:14;1.90;;;0.20;;
67100;SDS011;54019;61.746;16.106;2022-10-16T13:24:49;2.35;;;0.38;;
67100;SDS011;54019;61.746;16.106;2022-10-16T13:27:27;2.83;;;0.32;;
67100;SDS011;54019;61.746;16.106;2022-10-16T13:30:01;0.45;;;0.15;;
67100;SDS011;54019;61.746;16.106;2022-10-16T13:32:35;0.60;;;0.20;;
67100;SDS011;54019;61.746;16.106;2022-10-16T13:35:01;1.63;;;0.15;;
67100;SDS011;54019;61.746;16.106;2022-10-16T13:37:27;5.90;;;0.50;;
67100;SDS011;54019;61.746;16.106;2022-10-16T13:40:02;1.83;;;0.20;;
67100;SDS011;54019;61.746;16.106;2022-10-16T13:42:36;2.78;;;0.25;;
67100;SDS011;54019;61.746;16.106;2022-10-16T13:45:02;4.15;;;0.50;;
67100;SDS011;54019;61.746;16.106;2022-10-16T13:47:29;2.50;;;0.45;;
67100;SDS011;54019;61.746;16.106;2022-10-16T13:50:00;2.90;;;0.30;;
67100;SDS011;54019;61.746;16.106;2022-10-16T13:52:27;1.23;;;0.60;;
67100;SDS011;54019;61.746;16.106;2022-10-16T13:54:53;98.82;;;49.85;;
67100;SDS011;54019;61.746;16.106;2022-10-16T13:57:21;70.07;;;33.20;;
67100;SDS011;54019;61.746;16.106;2022-10-16T13:59:48;39.42;;;17.48;;
67100;SDS011;54019;61.746;16.106;2022-10-16T14:02:16;23.85;;;10.18;;
67100;SDS011;54019;61.746;16.106;2022-10-16T14:07:14;12.15;;;5.40;;
67100;SDS011;54019;61.746;16.106;2022-10-16T14:09:47;12.25;;;3.80;;
67100;SDS011;54019;61.746;16.106;2022-10-16T14:12:14;9.85;;;3.90;;
67100;SDS011;54019;61.746;16.106;2022-10-16T14:14:41;12.05;;;3.60;;
67100;SDS011;54019;61.746;16.106;2022-10-16T14:17:13;10.20;;;3.60;;
67100;SDS011;54019;61.746;16.106;2022-10-16T14:19:39;11.20;;;3.00;;
67100;SDS011;54019;61.746;16.106;2022-10-16T14:22:11;5.93;;;2.75;;
67100;SDS011;54019;61.746;16.106;2022-10-16T14:24:51;4.38;;;2.30;;
67100;SDS011;54019;61.746;16.106;2022-10-16T14:27:28;5.43;;;2.35;;
67100;SDS011;54019;61.746;16.106;2022-10-16T14:30:08;4.45;;;1.90;;
67100;SDS011;54019;61.746;16.106;2022-10-16T14:32:39;11.57;;;2.15;;
67100;SDS011;54019;61.746;16.106;2022-10-16T14:35:21;7.72;;;2.00;;
67100;SDS011;54019;61.746;16.106;2022-10-16T14:37:52;5.88;;;1.92;;
67100;SDS011;54019;61.746;16.106;2022-10-16T14:40:18;6.40;;;1.55;;
67100;SDS011;54019;61.746;16.106;2022-10-16T14:42:45;7.28;;;1.85;;
67100;SDS011;54019;61.746;16.106;2022-10-16T14:45:11;4.75;;;1.60;;
67100;SDS011;54019;61.746;16.106;2022-10-16T14:47:37;5.82;;;1.70;;
67100;SDS011;54019;61.746;16.106;2022-10-16T14:50:14;4.22;;;1.20;;
67100;SDS011;54019;61.746;16.106;2022-10-16T14:52:40;6.93;;;1.60;;
67100;SDS011;54019;61.746;16.106;2022-10-16T14:55:08;2.15;;;1.00;;
67100;SDS011;54019;61.746;16.106;2022-10-16T14:57:35;3.20;;;1.20;;
67100;SDS011;54019;61.746;16.106;2022-10-16T15:00:03;2.88;;;1.20;;
67100;SDS011;54019;61.746;16.106;2022-10-16T15:02:32;9.57;;;1.35;;
67100;SDS011;54019;61.746;16.106;2022-10-16T15:04:59;5.65;;;1.20;;